Flight Track Log - Related Links

Times and Time Zones

All times are in EDT time to prevent confusion due to time zone crossing. See the G-VIIS flight status page for this flight to view local times or setup timezone preferences in your user account.

Time Position Orientation Groundspeed Altitude Reporting Facility
EDT Latitude Longitude Course Direction KTS MPH feet Rate Location/Type
Mon 05:55:10 AM 51.4769 -0.5226 268° West 182 209 1,600  Level FlightAware ADS-B
Mon 05:55:17 AM 51.4765 -0.5329 266° West 192 221 1,700 600 Climbing FlightAware ADS-B
Mon 05:55:30 AM 51.4742 -0.5519 259° West 209 241 1,800 720 Climbing FlightAware ADS-B
Mon 05:55:42 AM 51.4711 -0.5708 255° West 221 254 2,000 1,071 Climbing FlightAware ADS-B
Mon 05:55:58 AM 51.4672 -0.5965 256° West 238 274 2,300 1,600 Climbing FlightAware ADS-B
Mon 05:56:12 AM 51.4633 -0.6206 255° West 243 280 2,800 2,444 Climbing FlightAware ADS-B
Mon 05:56:25 AM 51.4597 -0.6440 256° West 243 280 3,400 2,400 Climbing FlightAware ADS-B
Mon 05:56:37 AM 51.4563 -0.6647 255° West 246 283 3,800 2,333 Climbing FlightAware ADS-B
Mon 05:56:43 AM 51.4550 -0.6754 259° West 246 283 4,100 2,182 Climbing FlightAware ADS-B
Mon 05:56:48 AM 51.4544 -0.6845 264° West 247 284 4,200 1,800 Climbing FlightAware ADS-B
Mon 05:56:53 AM 51.4540 -0.6943 266° West 246 283 4,400 2,667 Climbing FlightAware ADS-B
Mon 05:56:57 AM 51.4539 -0.7016 269° West 247 284 4,600 2,500 Climbing FlightAware ADS-B
Mon 05:57:05 AM 51.4540 -0.7163 271° West 248 285 4,900 2,182 Climbing FlightAware ADS-B
Mon 05:57:08 AM 51.4543 -0.7221 275° West 249 287 5,000 2,571 Climbing FlightAware ADS-B
Mon 05:57:12 AM 51.4551 -0.7290 281° West 249 287 5,200 2,667 Climbing FlightAware ADS-B
Mon 05:57:17 AM 51.4564 -0.7379 283° West 249 287 5,400 2,286 Climbing FlightAware ADS-B
Mon 05:57:33 AM 51.4614 -0.7655 286° West 249 287 6,000 2,364 Climbing FlightAware ADS-B
Mon 05:57:50 AM 51.4670 -0.7954 287° West 249 287 6,700 2,400 Climbing FlightAware ADS-B
Mon 05:58:03 AM 51.4715 -0.8187 287° West 250 288 7,200 2,200 Climbing FlightAware ADS-B
Mon 05:58:20 AM 51.4773 -0.8482 288° West 252 290 7,800 2,182 Climbing FlightAware ADS-B
Mon 05:58:36 AM 51.4830 -0.8775 287° West 253 291 8,400 2,438 Climbing FlightAware ADS-B
Mon 05:58:52 AM 51.4884 -0.9058 287° West 254 292 9,100 2,323 Climbing FlightAware ADS-B
Mon 05:59:07 AM 51.4936 -0.9332 287° West 255 293 9,600 1,696 Climbing FlightAware ADS-B
Mon 05:59:38 AM 51.5044 -0.9888 287° West 265 305 10,400 1,279 Climbing FlightAware ADS-B
Mon 06:00:08 AM 51.5162 -1.0489 288° West 293 337 10,900 -875 Climbing FlightAware ADS-B
Mon 06:00:26 AM 51.5240 -1.0884 288° West 342 394 9,700 1,355 Descending FlightAware UK
Mon 06:00:39 AM 51.5289 -1.1138 288° West 307 353 11,600 4,465 Climbing FlightAware ADS-B
Mon 06:01:09 AM 51.5424 -1.1805 288° West 309 356 12,900 2,459 Climbing FlightAware ADS-B
Mon 06:01:40 AM 51.5560 -1.2468 288° West 310 357 14,100 255 Climbing FlightAware ADS-B
Mon 06:01:56 AM 51.5635 -1.2837 288° West 360 414 13,100 1,600 Descending FlightAware UK
Mon 06:02:10 AM 51.5695 -1.3140 288° West 317 365 14,900 667 Climbing FlightAware ADS-B
Mon 06:02:32 AM 51.5798 -1.3649 288° West 366 421 13,500 188 Descending FlightAware UK
Mon 06:02:42 AM 51.5842 -1.3859 288° West 319 367 15,000 2,595 Climbing FlightAware ADS-B
Mon 06:03:09 AM 51.5969 -1.4465 289° West 320 368 15,100 -1,227 Climbing FlightAware ADS-B
Mon 06:03:26 AM 51.6050 -1.4858 289° West 370 426 14,100 2,129 Descending FlightAware UK
Mon 06:03:40 AM 51.6113 -1.5164 289° West 319 367 16,200 2,200 Climbing FlightAware ADS-B
Mon 06:03:56 AM 51.6189 -1.5531 289° West 376 433 15,200 2,200 Descending FlightAware UK
Mon 06:04:10 AM 51.6254 -1.5845 289° West 321 369 17,300 4,133 Climbing FlightAware ADS-B
Mon 06:04:41 AM 51.6398 -1.6552 288° West 325 374 18,300 115 Climbing FlightAware ADS-B
Mon 06:05:02 AM 51.6496 -1.7032 288° West 386 444 17,400 1,688 Descending FlightAware UK
Mon 06:05:13 AM 51.6545 -1.7276 288° West 328 377 19,200 1,800 Climbing FlightAware ADS-B
Mon 06:05:32 AM 51.6639 -1.7733 288° West 392 451 18,300 1,935 Descending FlightAware UK
Mon 06:05:44 AM 51.6694 -1.8004 288° West 331 381 20,200 4,047 Climbing FlightAware ADS-B
Mon 06:06:15 AM 51.6844 -1.8747 288° West 334 384 21,200 -125 Climbing FlightAware ADS-B
Mon 06:06:32 AM 51.6923 -1.9138 288° West 402 463 20,100 1,742 Descending FlightAware UK
Mon 06:06:46 AM 51.6989 -1.9464 288° West 336 387 22,100 1,800 Climbing FlightAware ADS-B
Mon 06:07:02 AM 51.7067 -1.9852 288° West 408 470 21,000 1,548 Descending FlightAware UK
Mon 06:07:17 AM 51.7138 -2.0210 288° West 339 390 22,900 3,125 Climbing FlightAware ADS-B
Mon 06:07:50 AM 51.7299 -2.1011 288° West 342 394 23,500 1,235 Climbing FlightAware ADS-B
Mon 06:08:25 AM 51.7468 -2.1858 288° West 349 402 24,300 -333 Climbing FlightAware ADS-B
Mon 06:08:44 AM 51.7562 -2.2331 288° West 418 481 23,200 1,313 Descending FlightAware UK
Mon 06:08:57 AM 51.7626 -2.2655 288° West 355 409 25,000 1,333 Climbing FlightAware ADS-B
Mon 06:09:20 AM 51.7741 -2.3240 288° West 426 490 24,000 1,371 Descending FlightAware UK
Mon 06:09:32 AM 51.7801 -2.3540 288° West 358 412 25,800 3,488 Climbing FlightAware ADS-B
Mon 06:10:03 AM 51.7958 -2.4337 288° West 361 415 26,500 -625 Climbing FlightAware ADS-B
Mon 06:10:20 AM 51.8043 -2.4771 288° West 434 499 25,300 1,313 Descending FlightAware UK
Mon 06:10:35 AM 51.8116 -2.5152 288° West 364 419 27,200 3,375 Climbing FlightAware ADS-B
Mon 06:11:08 AM 51.8255 -2.6029 284° West 367 422 28,000 -214 Climbing FlightAware ADS-B
Mon 06:11:31 AM 51.8345 -2.6671 284° West 446 513 27,000 1,227 Descending FlightAware UK
Mon 06:11:52 AM 51.8410 -2.7130 284° West 369 425 28,900 1,125 Climbing FlightAware ADS-B
Mon 06:12:19 AM 51.8519 -2.7959 284° West 448 516 27,900 1,067 Descending FlightAware UK
Mon 06:12:37 AM 51.8560 -2.8300 284° West 376 433 29,700 1,125 Climbing FlightAware ADS-B
Mon 06:13:07 AM 51.8696 -2.9285 284° West 456 525 28,800 1,050 Descending FlightAware UK
Mon 06:13:17 AM 51.8720 -2.9460 284° West 380 437 30,400 1,000 Climbing FlightAware ADS-B
Mon 06:13:49 AM 51.8850 -3.0448 284° West 460 529 29,500 1,091 Descending FlightAware UK
Mon 06:14:01 AM 51.8892 -3.0771 284° West 385 443 31,200 800 Climbing FlightAware ADS-B
Mon 06:14:19 AM 51.8960 -3.1292 284° West 462 532 29,900 774 Descending FlightAware UK
Mon 06:14:32 AM 51.9009 -3.1667 284° West 390 449 31,600 800 Climbing FlightAware ADS-B
Mon 06:14:49 AM 51.9073 -3.2155 284° West 466 536 30,300 960 Descending FlightAware UK
Mon 06:15:22 AM 51.9180 -3.2980 284° West 394 453 32,400 3,000 Climbing FlightAware ADS-B
Mon 06:15:35 AM 51.9242 -3.3462 282° West 394 453 32,600 -2,000 Climbing FlightAware ADS-B
Mon 06:15:55 AM 51.9318 -3.4053 282° West 474 545 31,300 563 Descending FlightAware UK
Mon 06:16:07 AM 51.9360 -3.4350 282° West 400 460 32,900 571 Climbing FlightAware ADS-B
Mon 06:16:37 AM 51.9477 -3.5289 282° West 478 550 31,700 750 Descending FlightAware UK
Mon 06:16:47 AM 51.9500 -3.5500 282° West 407 468 33,400 800 Climbing FlightAware ADS-B
Mon 06:17:07 AM 51.9591 -3.6186 282° West 480 552 32,100 -1,895 Descending FlightAware UK
Mon 06:17:25 AM 51.9659 -3.6723 282° West 482 555 32,200 5,100 Climbing FlightAware UK
Mon 06:17:27 AM 51.9650 -3.6680 282° West 414 476 33,800 2,298 Climbing FlightAware ADS-B
Mon 06:18:12 AM 51.9830 -3.8090 282° West 413 475 34,000 150 Climbing FlightAware ADS-B
Mon 06:18:47 AM 51.9960 -3.9170 281° West 416 479 34,000 -1,475 Level FlightAware ADS-B
Mon 06:19:13 AM 52.0068 -4.0008 281° West 484 557 32,500  Descending FlightAware UK
Mon 06:19:37 AM 52.0140 -4.0590 281° West 419 482 34,000  Climbing FlightAware ADS-B
Mon 06:19:55 AM 52.0227 -4.1297 281° West 486 559 32,500  Descending FlightAware UK
Mon 06:20:17 AM 52.0300 -4.1880 281° West 418 481 34,000  Climbing FlightAware ADS-B
Mon 06:20:42 AM 52.0407 -4.2771 281° West 488 562 32,500  Descending FlightAware UK
Mon 06:20:57 AM 52.0452 -4.3212 281° West 418 481 34,000  Climbing FlightAware ADS-B
Mon 06:21:36 AM 52.0381 -4.4453 281° West 486 559 32,500  Descending FlightAware UK
Mon 06:21:42 AM 52.0380 -4.4440 281° West 420 483 34,000 4,500 Climbing FlightAware ADS-B
Mon 06:21:56 AM 52.0345 -4.5051 265° West 419 482 34,000 -3,000 Level FlightAware ADS-B
Mon 06:22:12 AM 52.0314 -4.5578 265° West 486 559 32,500 -2,647 Descending FlightAware UK
Mon 06:22:30 AM 52.0300 -4.6143 268° West 486 559 32,500 3,081 Level FlightAware UK
Mon 06:22:49 AM 52.0283 -4.6717 268° West 419 482 34,400 1,000 Climbing FlightAware ADS-B
Mon 06:23:06 AM 52.0268 -4.7271 268° West 482 555 33,100 -1,886 Descending FlightAware UK
Mon 06:23:24 AM 52.0255 -4.7836 268° West 484 557 33,300 3,167 Climbing FlightAware UK
Mon 06:23:42 AM 52.0240 -4.8340 268° West 423 487 35,000 286 Climbing FlightAware ADS-B
Mon 06:24:06 AM 52.0195 -4.9160 268° West 486 559 33,500  Descending FlightAware UK
Mon 06:24:32 AM 52.0150 -4.9930 268° West 422 486 35,000  Climbing FlightAware ADS-B
Mon 06:24:48 AM 52.0113 -5.0482 268° West 484 557 33,500  Descending FlightAware UK
Mon 06:25:12 AM 52.0070 -5.1160 268° West 421 484 35,000  Climbing FlightAware ADS-B
Mon 06:25:36 AM 52.0026 -5.1990 268° West 484 557 33,500  Descending FlightAware UK
Mon 06:25:57 AM 51.9990 -5.2540 268° West 420 483 35,000  Climbing FlightAware ADS-B
Mon 06:26:18 AM 51.9952 -5.3306 268° West 484 557 33,500  Descending FlightAware UK
Mon 06:26:37 AM 51.9920 -5.3790 268° West 420 483 35,000  Climbing FlightAware ADS-B
Mon 06:26:54 AM 51.9885 -5.4431 268° West 484 557 33,500 -2,571 Descending FlightAware UK
Mon 06:27:12 AM 51.9850 -5.4992 264° West 482 555 33,500 3,913 Level FlightAware UK
Mon 06:27:17 AM 51.9850 -5.5010 264° West 419 482 35,000  Climbing FlightAware ADS-B
Mon 06:27:36 AM 51.9803 -5.5740 264° West 482 555 33,500  Descending FlightAware UK
Mon 06:28:02 AM 51.9750 -5.6480 264° West 420 483 35,000  Climbing FlightAware ADS-B
Mon 06:28:18 AM 51.9720 -5.7049 264° West 484 557 33,500 -2,647 Descending FlightAware UK
Mon 06:28:36 AM 51.9685 -5.7612 264° West 484 557 33,500 3,750 Level FlightAware UK
Mon 06:28:42 AM 51.9680 -5.7740 264° West 421 484 35,000  Climbing FlightAware ADS-B
Mon 06:29:00 AM 51.9637 -5.8364 264° West 486 559 33,500 -2,500 Descending FlightAware UK
Mon 06:29:18 AM 51.9602 -5.8928 264° West 484 557 33,500 3,333 Level FlightAware UK
Mon 06:29:27 AM 51.9590 -5.9110 264° West 420 483 35,000  Climbing FlightAware ADS-B
Mon 06:29:42 AM 51.9553 -5.9680 264° West 482 555 33,500 -2,727 Descending FlightAware UK
Mon 06:30:00 AM 51.9514 -6.0238 264° West 486 559 33,500 3,600 Level FlightAware UK
Mon 06:30:07 AM 51.9500 -6.0360 264° West 422 486 35,000  Climbing FlightAware ADS-B
Mon 06:30:24 AM 51.9464 -6.0990 264° West 486 559 33,500 -2,571 Descending FlightAware UK
Mon 06:30:42 AM 51.9426 -6.1553 264° West 486 559 33,500 3,913 Level FlightAware UK
Mon 06:30:47 AM 51.9420 -6.1620 264° West 418 481 35,000  Climbing FlightAware ADS-B
Mon 06:31:06 AM 51.9377 -6.2300 264° West 484 557 33,500 -2,432 Descending FlightAware UK
Mon 06:31:24 AM 51.9340 -6.2857 264° West 482 555 33,500 3,462 Level FlightAware UK
Mon 06:31:32 AM 51.9330 -6.3000 264° West 416 479 35,000  Climbing FlightAware ADS-B
Mon 06:31:48 AM 51.9289 -6.3597 264° West 482 555 33,500 -2,647 Descending FlightAware UK
Mon 06:32:06 AM 51.9253 -6.4152 264° West 482 555 33,500 3,750 Level FlightAware UK
Mon 06:32:12 AM 51.9240 -6.4280 264° West 416 479 35,000  Climbing FlightAware ADS-B
Mon 06:32:30 AM 51.9200 -6.4892 264° West 482 555 33,500 -2,500 Descending FlightAware UK
Mon 06:32:48 AM 51.9159 -6.5447 263° West 482 555 33,500 4,364 Level FlightAware UK
Mon 06:32:52 AM 51.9150 -6.5530 263° West 418 481 35,100 750 Climbing FlightAware ADS-B
Mon 06:33:12 AM 51.9106 -6.6191 263° West 486 559 33,800 -1,579 Descending FlightAware UK
Mon 06:33:30 AM 51.9065 -6.6751 263° West 488 562 34,100 4,800 Climbing FlightAware UK
Mon 06:33:37 AM 51.9060 -6.6890 263° West 419 482 35,800 1,000 Climbing FlightAware ADS-B
Mon 06:33:54 AM 51.9012 -6.7499 263° West 484 557 34,500 -2,229 Descending FlightAware UK
Mon 06:34:12 AM 51.8971 -6.8059 263° West 484 557 34,500 3,913 Level FlightAware UK
Mon 06:34:17 AM 51.8960 -6.8170 263° West 416 479 36,000  Climbing FlightAware ADS-B
Mon 06:34:36 AM 51.8918 -6.8802 263° West 484 557 34,500 -2,432 Descending FlightAware UK
Mon 06:34:54 AM 51.8879 -6.9357 264° West 482 555 34,500 4,286 Level FlightAware UK
Mon 06:34:57 AM 51.8880 -6.9360 264° West 415 478 36,000  Climbing FlightAware ADS-B
Mon 06:35:12 AM 51.8839 -6.9911 264° West 482 555 34,500 -2,727 Descending FlightAware UK
Mon 06:35:30 AM 51.8797 -7.0464 263° West 482 555 34,500 3,000 Level FlightAware UK
Mon 06:35:42 AM 51.8770 -7.0770 263° West 417 480 36,000  Climbing FlightAware ADS-B
Mon 06:36:00 AM 51.8726 -7.1387 263° West 484 557 34,500  Descending FlightAware UK
Mon 06:36:22 AM 51.8680 -7.2000 263° West 416 479 36,000  Climbing FlightAware ADS-B
Mon 06:36:42 AM 51.8626 -7.2673 263° West 482 555 34,500 -2,368 Descending FlightAware UK
Mon 06:37:00 AM 51.8583 -7.3227 263° West 482 555 34,500 3,600 Level FlightAware UK
Mon 06:37:07 AM 51.8580 -7.3280 263° West 417 480 36,000  Climbing FlightAware ADS-B
Mon 06:37:24 AM 51.8525 -7.3966 263° West 484 557 34,500 -2,571 Descending FlightAware UK
Mon 06:37:42 AM 51.8482 -7.4521 263° West 484 557 34,500 5,000 Level FlightAware UK
Mon 06:37:42 AM 51.8490 -7.4370 263° West 417 480 36,000  Climbing FlightAware ADS-B
Mon 06:38:00 AM 51.8440 -7.5078 263° West 484 557 34,500 -2,500 Descending FlightAware UK
Mon 06:38:18 AM 51.8395 -7.5634 263° West 482 555 34,500 2,813 Level FlightAware UK
Mon 06:38:32 AM 51.8360 -7.6010 263° West 416 479 36,000  Climbing FlightAware ADS-B
Mon 06:38:48 AM 51.8318 -7.6558 263° West 482 555 34,500 -2,647 Descending FlightAware UK
Mon 06:39:06 AM 51.8273 -7.7111 262° West 482 555 34,500 3,750 Level FlightAware UK
Mon 06:39:12 AM 51.8270 -7.7210 262° West 417 480 36,000  Climbing FlightAware ADS-B
Mon 06:39:36 AM 51.8198 -7.8035 262° West 482 555 34,500 -2,143 Descending FlightAware UK
Mon 06:39:54 AM 51.8154 -7.8589 263° West 482 555 34,500 3,462 Level FlightAware UK
Mon 06:40:02 AM 51.8150 -7.8610 263° West 416 479 36,000  Climbing FlightAware ADS-B
Mon 06:40:18 AM 51.8093 -7.9329 263° West 482 555 34,500 -2,250 Descending FlightAware UK
Mon 06:40:42 AM 51.8033 -8.0068 263° West 482 555 34,500  Level FlightAware UK
Mon 06:41:00 AM 51.7988 -8.0622 263° West 482 555 34,500  Level FlightAware UK
Mon 06:41:18 AM 51.7941 -8.1175 262° West 480 552 34,500 2,813 Level FlightAware UK
Mon 06:41:32 AM 51.7930 -8.1280 262° West 415 478 36,000  Climbing FlightAware ADS-B
Mon 06:41:48 AM 51.7863 -8.2096 262° West 480 552 34,500 -2,647 Descending FlightAware UK
Mon 06:42:06 AM 51.7815 -8.2648 262° West 480 552 34,500 3,750 Level FlightAware UK
Mon 06:42:12 AM 51.7810 -8.2710 262° West 417 480 36,000  Climbing FlightAware ADS-B
Mon 06:42:30 AM 51.7752 -8.3378 262° West 478 550 34,500 -2,500 Descending FlightAware UK
Mon 06:42:48 AM 51.7704 -8.3931 262° West 478 550 34,500 3,333 Level FlightAware UK
Mon 06:42:57 AM 51.7690 -8.4050 262° West 418 481 36,000  Climbing FlightAware ADS-B
Mon 06:43:12 AM 51.7640 -8.4670 262° West 478 550 34,500 -2,727 Descending FlightAware UK
Mon 06:43:30 AM 51.7590 -8.5224 262° West 480 552 34,500  Level FlightAware UK
Mon 06:43:48 AM 51.7542 -8.5781 262° West 480 552 34,500  Level FlightAware UK
Mon 06:44:06 AM 51.7491 -8.6339 262° West 480 552 34,500  Level FlightAware UK
Mon 06:44:24 AM 51.7441 -8.6898 262° West 480 552 34,500 3,462 Level FlightAware UK
Mon 06:44:32 AM 51.7430 -8.7090 262° West 420 483 36,000  Climbing FlightAware ADS-B
Mon 06:44:48 AM 51.7375 -8.7642 262° West 480 552 34,500 -2,647 Descending FlightAware UK
Mon 06:45:06 AM 51.7325 -8.8199 262° West 480 552 34,500  Level FlightAware UK
Mon 06:45:24 AM 51.7275 -8.8756 262° West 480 552 34,500 2,903 Level FlightAware UK
Mon 06:45:37 AM 51.7260 -8.8960 262° West 418 481 36,000  Climbing FlightAware ADS-B
Mon 06:45:42 AM 51.7224 -8.9313 262° West 480 552 34,500 -5,294 Descending FlightAware UK
Mon 06:45:54 AM 51.7190 -8.9683 262° West 480 552 34,500 2,000 Level FlightAware UK
Mon 06:46:27 AM 51.7100 -9.0630 262° West 418 481 36,000 1,233 Climbing FlightAware ADS-B
Mon 06:47:07 AM 51.7000 -9.1770 262° West 418 481 36,000  Level FlightAware ADS-B
Mon 06:47:47 AM 51.6880 -9.3050 261° West 420 483 36,000  Level FlightAware ADS-B
Mon 06:48:32 AM 51.6740 -9.4490 261° West 425 489 36,000  Level FlightAware ADS-B
Mon 06:49:12 AM 51.6620 -9.5710 261° West 428 493 36,000  Level FlightAware ADS-B
Mon 06:49:47 AM 51.6510 -9.6840 261° West 428 493 36,000  Level FlightAware ADS-B
Mon 06:50:37 AM 51.6360 -9.8340 261° West 425 489 36,000  Level FlightAware ADS-B
Mon 06:51:17 AM 51.6230 -9.9650 261° West 426 490 36,000 71 Level FlightAware ADS-B
Mon 06:52:02 AM 51.6090 -10.1070 261° West 428 493 36,100 353 Climbing FlightAware ADS-B
Mon 06:52:42 AM 51.5960 -10.2320 261° West 429 494 36,500 635 Climbing FlightAware ADS-B
Mon 06:53:27 AM 51.5810 -10.3710 260° West 427 491 37,000 194 Climbing FlightAware ADS-B
Mon 06:55:17 AM 51.5450 -10.7150 261° West 428 493 37,000  Level FlightAware ADS-B
Mon 06:56:02 AM 51.5300 -10.8560 260° West 430 495 37,000  Level FlightAware ADS-B
Mon 06:56:42 AM 51.5170 -10.9740 260° West 431 496 37,000  Level FlightAware ADS-B
Mon 06:59:00 AM 51.5713 -11.4085 282° West  Level Estimated
Mon 06:59:02 AM 51.4690 -11.4030 282° West 431 496 37,000  Level FlightAware ADS-B
Mon 07:01:00 AM 51.5146 -11.7744 281° West  Level Estimated
Mon 07:02:00 AM 51.5373 -11.9635 281° West  Level Estimated
Mon 07:03:00 AM 51.5598 -12.1528 281° West  Level Estimated
Mon 07:04:00 AM 51.5819 -12.3423 281° West  Level Estimated
Mon 07:05:00 AM 51.6037 -12.5319 281° West  Level Estimated
Mon 07:06:00 AM 51.6252 -12.7218 280° West  Level Estimated
Mon 07:07:00 AM 51.6464 -12.9118 280° West  Level Estimated
Mon 07:08:00 AM 51.6673 -13.1020 280° West  Level Estimated
Mon 07:09:00 AM 51.6879 -13.2924 280° West  Level Estimated
Mon 07:10:00 AM 51.7082 -13.4830 280° West  Level Estimated
Mon 07:11:00 AM 51.7282 -13.6737 280° West  Level Estimated
Mon 07:12:00 AM 51.7478 -13.8646 280° West  Level Estimated
Mon 07:13:00 AM 51.7672 -14.0556 279° West  Level Estimated
Mon 07:14:00 AM 51.7863 -14.2469 279° West  Level Estimated
Mon 07:15:00 AM 51.8050 -14.4382 279° West  Level Estimated
Mon 07:16:00 AM 51.8234 -14.6298 279° West  Level Estimated
Mon 07:17:00 AM 51.8415 -14.8215 279° West  Level Estimated
Mon 07:18:00 AM 51.8593 -15.0133 279° West  Level Estimated
Mon 07:19:00 AM 51.8768 -15.2053 278° West  Level Estimated
Mon 07:20:00 AM 51.8940 -15.3975 278° West  Level Estimated
Mon 07:21:00 AM 51.9109 -15.5897 278° West  Level Estimated
Mon 07:22:00 AM 51.9274 -15.7822 278° West  Level Estimated
Mon 07:23:00 AM 51.9437 -15.9747 278° West  Level Estimated
Mon 07:24:00 AM 51.9596 -16.1674 278° West  Level Estimated
Mon 07:25:00 AM 51.9752 -16.3603 278° West  Level Estimated
Mon 07:26:00 AM 51.9905 -16.5533 277° West  Level Estimated
Mon 07:27:00 AM 52.0055 -16.7464 277° West  Level Estimated
Mon 07:28:00 AM 52.0201 -16.9396 277° West  Level Estimated
Mon 07:29:00 AM 52.0345 -17.1330 277° West  Level Estimated
Mon 07:30:00 AM 52.0485 -17.3265 277° West  Level Estimated
Mon 07:31:00 AM 52.0624 -17.5228 277° West  Level Estimated
Mon 07:32:00 AM 52.0760 -17.7192 276° West  Level Estimated
Mon 07:33:00 AM 52.0892 -17.9157 276° West  Level Estimated
Mon 07:34:00 AM 52.1022 -18.1124 276° West  Level Estimated
Mon 07:35:00 AM 52.1147 -18.3091 276° West  Level Estimated
Mon 07:36:00 AM 52.1270 -18.5060 276° West  Level Estimated
Mon 07:37:00 AM 52.1390 -18.7030 276° West  Level Estimated
Mon 07:38:00 AM 52.1506 -18.9001 276° West  Level Estimated
Mon 07:39:00 AM 52.1618 -19.0972 275° West  Level Estimated
Mon 07:40:00 AM 52.1728 -19.2945 275° West  Level Estimated
Mon 07:41:00 AM 52.1834 -19.4919 275° West  Level Estimated
Mon 07:42:00 AM 52.1937 -19.6894 275° West  Level Estimated
Mon 07:43:00 AM 52.2037 -19.8869 275° West  Level Estimated
Mon 07:43:00 AM 51.0000 -20.0000 265° West 463 533 37,000  Level ETMS Enhanced Traffic Management System
Mon 07:44:00 AM 52.2133 -20.0846 275° West  Level Estimated
Mon 07:45:00 AM 52.2226 -20.2823 274° West  Level Estimated
Mon 07:46:00 AM 52.2316 -20.4801 274° West  Level Estimated
Mon 07:47:00 AM 52.2402 -20.6780 274° West  Level Estimated
Mon 07:48:00 AM 52.2485 -20.8760 274° West  Level Estimated
Mon 07:49:00 AM 50.9257 -21.2201 264° West 463 533 37,000  Level FlightAware Transoceanic
Mon 07:50:00 AM 50.9121 -21.4231 264° West 463 533 37,000  Level FlightAware Transoceanic
Mon 07:51:00 AM 50.8981 -21.6259 264° West 463 533 37,000  Level FlightAware Transoceanic
Mon 07:52:00 AM 50.8838 -21.8287 264° West 463 533 37,000  Level FlightAware Transoceanic
Mon 07:53:00 AM 50.8691 -22.0312 263° West 463 533 37,000  Level FlightAware Transoceanic
Mon 07:54:00 AM 50.8541 -22.2337 263° West 463 533 37,000  Level FlightAware Transoceanic
Mon 07:55:00 AM 50.8387 -22.4361 263° West 463 533 37,000  Level FlightAware Transoceanic
Mon 07:56:00 AM 50.8230 -22.6382 263° West 463 533 37,000  Level FlightAware Transoceanic
Mon 07:57:00 AM 50.8069 -22.8403 263° West 463 533 37,000  Level FlightAware Transoceanic
Mon 07:58:00 AM 50.7905 -23.0422 263° West 463 533 37,000  Level FlightAware Transoceanic
Mon 07:59:00 AM 50.7737 -23.2440 262° West 463 533 37,000  Level FlightAware Transoceanic
Mon 08:00:00 AM 50.7566 -23.4456 262° West 463 533 37,000  Level FlightAware Transoceanic
Mon 08:01:00 AM 50.7391 -23.6471 262° West 463 533 37,000  Level FlightAware Transoceanic
Mon 08:02:00 AM 50.7213 -23.8484 262° West 463 533 37,000  Level FlightAware Transoceanic
Mon 08:03:00 AM 50.7031 -24.0496 262° West 463 533 37,000  Level FlightAware Transoceanic
Mon 08:04:00 AM 50.6846 -24.2506 262° West 463 533 37,000  Level FlightAware Transoceanic
Mon 08:05:00 AM 50.6658 -24.4515 261° West 463 533 37,000  Level FlightAware Transoceanic
Mon 08:06:00 AM 50.6466 -24.6522 261° West 463 533 37,000  Level FlightAware Transoceanic
Mon 08:07:00 AM 50.6270 -24.8527 261° West 463 533 37,000  Level FlightAware Transoceanic
Mon 08:08:00 AM 50.6072 -25.0531 261° West 463 533 37,000  Level FlightAware Transoceanic
Mon 08:09:00 AM 50.5869 -25.2533 261° West 463 533 37,000  Level FlightAware Transoceanic
Mon 08:10:00 AM 50.5664 -25.4533 261° West 463 533 37,000  Level FlightAware Transoceanic
Mon 08:11:00 AM 50.5454 -25.6531 261° West 463 533 37,000  Level FlightAware Transoceanic
Mon 08:12:00 AM 50.5242 -25.8528 260° West 463 533 37,000  Level FlightAware Transoceanic
Mon 08:13:00 AM 50.5026 -26.0523 260° West 463 533 37,000  Level FlightAware Transoceanic
Mon 08:14:00 AM 50.4807 -26.2516 260° West 463 533 37,000  Level FlightAware Transoceanic
Mon 08:15:00 AM 50.4584 -26.4507 260° West 463 533 37,000  Level FlightAware Transoceanic
Mon 08:16:00 AM 50.4358 -26.6496 260° West 463 533 37,000  Level FlightAware Transoceanic
Mon 08:17:00 AM 50.4128 -26.8483 260° West 463 533 37,000  Level FlightAware Transoceanic
Mon 08:18:00 AM 50.3895 -27.0469 259° West 463 533 37,000  Level FlightAware Transoceanic
Mon 08:19:00 AM 50.3659 -27.2452 259° West 463 533 37,000  Level FlightAware Transoceanic
Mon 08:20:00 AM 50.3419 -27.4433 259° West 463 533 37,000  Level FlightAware Transoceanic
Mon 08:21:00 AM 50.3176 -27.6413 259° West 463 533 37,000  Level FlightAware Transoceanic
Mon 08:22:00 AM 50.2930 -27.8390 259° West 463 533 37,000  Level FlightAware Transoceanic
Mon 08:23:00 AM 50.2680 -28.0365 259° West 463 533 37,000  Level FlightAware Transoceanic
Mon 08:24:00 AM 50.2427 -28.2339 259° West 463 533 37,000  Level FlightAware Transoceanic
Mon 08:25:00 AM 50.2171 -28.4310 258° West 463 533 37,000  Level FlightAware Transoceanic
Mon 08:26:00 AM 50.1911 -28.6279 258° West 463 533 37,000  Level FlightAware Transoceanic
Mon 08:27:00 AM 50.1648 -28.8246 258° West 463 533 37,000  Level FlightAware Transoceanic
Mon 08:28:00 AM 50.1381 -29.0210 258° West 463 533 37,000  Level FlightAware Transoceanic
Mon 08:29:00 AM 50.1112 -29.2173 258° West 463 533 37,000  Level FlightAware Transoceanic
Mon 08:30:00 AM 50.0839 -29.4133 258° West 463 533 37,000  Level FlightAware Transoceanic
Mon 08:31:00 AM 50.0563 -29.6091 258° West 463 533 37,000  Level FlightAware Transoceanic
Mon 08:32:00 AM 50.0283 -29.8047 257° West 463 533 37,000  Level FlightAware Transoceanic
Mon 08:33:00 AM 50.0016 -29.9891 257° West  Level FlightAware Approximate
Mon 08:34:00 AM 49.9745 -30.1733 257° West  Level FlightAware Approximate
Mon 08:35:00 AM 49.9907 -30.1660 265° West  Level FlightAware Approximate
Mon 08:36:00 AM 49.9798 -30.3543 265° West  Level FlightAware Approximate
Mon 08:37:00 AM 49.9687 -30.5424 265° West  Level FlightAware Approximate
Mon 08:38:00 AM 49.9572 -30.7304 265° West  Level FlightAware Approximate
Mon 08:39:00 AM 49.9454 -30.9184 265° West  Level FlightAware Approximate
Mon 08:40:00 AM 49.9334 -31.1062 264° West  Level FlightAware Approximate
Mon 08:41:00 AM 49.9210 -31.2939 264° West  Level FlightAware Approximate
Mon 08:42:00 AM 49.9083 -31.4816 264° West  Level FlightAware Approximate
Mon 08:43:00 AM 49.8954 -31.6691 264° West  Level FlightAware Approximate
Mon 08:44:00 AM 49.8821 -31.8566 264° West  Level FlightAware Approximate
Mon 08:45:00 AM 49.8685 -32.0439 264° West  Level FlightAware Approximate
Mon 08:46:00 AM 49.8546 -32.2312 264° West  Level FlightAware Approximate
Mon 08:47:00 AM 49.8404 -32.4183 263° West  Level FlightAware Approximate
Mon 08:48:00 AM 49.8260 -32.6053 263° West  Level FlightAware Approximate
Mon 08:49:00 AM 49.8112 -32.7923 263° West  Level FlightAware Approximate
Mon 08:50:00 AM 49.7961 -32.9790 263° West  Level FlightAware Approximate
Mon 08:51:00 AM 49.7807 -33.1657 263° West  Level FlightAware Approximate
Mon 08:52:00 AM 49.7650 -33.3523 263° West  Level FlightAware Approximate
Mon 08:53:00 AM 49.7490 -33.5387 263° West  Level FlightAware Approximate
Mon 08:54:00 AM 49.7327 -33.7250 262° West  Level FlightAware Approximate
Mon 08:55:00 AM 49.7161 -33.9112 262° West  Level FlightAware Approximate
Mon 08:56:00 AM 49.6993 -34.0973 262° West  Level FlightAware Approximate
Mon 08:57:00 AM 49.6821 -34.2832 262° West  Level FlightAware Approximate
Mon 08:58:00 AM 49.6646 -34.4690 262° West  Level FlightAware Approximate
Mon 08:59:00 AM 49.6468 -34.6546 262° West  Level FlightAware Approximate
Mon 09:00:00 AM 49.6288 -34.8402 262° West  Level FlightAware Approximate
Mon 09:01:00 AM 49.6104 -35.0255 261° West  Level FlightAware Approximate
Mon 09:02:00 AM 49.5917 -35.2108 261° West  Level FlightAware Approximate
Mon 09:03:00 AM 49.5728 -35.3959 261° West  Level FlightAware Approximate
Mon 09:04:00 AM 49.5535 -35.5808 261° West  Level FlightAware Approximate
Mon 09:05:00 AM 49.5340 -35.7657 261° West  Level FlightAware Approximate
Mon 09:06:00 AM 49.5141 -35.9503 261° West  Level FlightAware Approximate
Mon 09:07:00 AM 49.4940 -36.1348 261° West  Level FlightAware Approximate
Mon 09:08:00 AM 49.4736 -36.3192 260° West  Level FlightAware Approximate
Mon 09:09:00 AM 49.4529 -36.5034 260° West  Level FlightAware Approximate
Mon 09:10:00 AM 49.4318 -36.6874 260° West  Level FlightAware Approximate
Mon 09:11:00 AM 49.4105 -36.8713 260° West  Level FlightAware Approximate
Mon 09:12:00 AM 49.3889 -37.0550 260° West  Level FlightAware Approximate
Mon 09:13:00 AM 49.3671 -37.2386 260° West  Level FlightAware Approximate
Mon 09:14:00 AM 49.3449 -37.4220 260° West  Level FlightAware Approximate
Mon 09:15:00 AM 49.3224 -37.6052 259° West  Level FlightAware Approximate
Mon 09:16:00 AM 49.2996 -37.7883 259° West  Level FlightAware Approximate
Mon 09:17:00 AM 49.2766 -37.9712 259° West  Level FlightAware Approximate
Mon 09:18:00 AM 49.2533 -38.1539 259° West  Level FlightAware Approximate
Mon 09:19:00 AM 49.2296 -38.3364 259° West  Level FlightAware Approximate
Mon 09:20:00 AM 49.2057 -38.5188 259° West  Level FlightAware Approximate
Mon 09:21:00 AM 49.1815 -38.7010 259° West  Level FlightAware Approximate
Mon 09:22:00 AM 49.1571 -38.8830 258° West  Level FlightAware Approximate
Mon 09:23:00 AM 49.1323 -39.0649 258° West  Level FlightAware Approximate
Mon 09:24:00 AM 49.1072 -39.2465 258° West  Level FlightAware Approximate
Mon 09:25:00 AM 49.0819 -39.4280 258° West  Level FlightAware Approximate
Mon 09:26:00 AM 49.0563 -39.6093 258° West  Level FlightAware Approximate
Mon 09:27:00 AM 49.0304 -39.7904 258° West  Level FlightAware Approximate
Mon 09:28:00 AM 49.0042 -39.9713 258° West  Level FlightAware Approximate
Mon 09:29:00 AM 48.9913 -40.1552 265° West  Level FlightAware Approximate
Mon 09:30:00 AM 48.9807 -40.3396 265° West  Level FlightAware Approximate
Mon 09:31:00 AM 48.9697 -40.5240 265° West  Level FlightAware Approximate
Mon 09:32:00 AM 48.9585 -40.7082 265° West  Level FlightAware Approximate
Mon 09:33:00 AM 48.9470 -40.8924 265° West  Level FlightAware Approximate
Mon 09:34:00 AM 48.9352 -41.0765 264° West  Level FlightAware Approximate
Mon 09:35:00 AM 48.9231 -41.2606 264° West  Level FlightAware Approximate
Mon 09:36:00 AM 48.9107 -41.4445 264° West  Level FlightAware Approximate
Mon 09:37:00 AM 48.8980 -41.6283 264° West  Level FlightAware Approximate
Mon 09:38:00 AM 48.8851 -41.8120 264° West  Level FlightAware Approximate
Mon 09:39:00 AM 48.8718 -41.9957 264° West  Level FlightAware Approximate
Mon 09:40:00 AM 48.8582 -42.1792 264° West  Level FlightAware Approximate
Mon 09:41:00 AM 48.8444 -42.3627 264° West  Level FlightAware Approximate
Mon 09:42:00 AM 48.8303 -42.5460 263° West  Level FlightAware Approximate
Mon 09:43:00 AM 48.8158 -42.7292 263° West  Level FlightAware Approximate
Mon 09:44:00 AM 48.8011 -42.9124 263° West  Level FlightAware Approximate
Mon 09:45:00 AM 48.7861 -43.0954 263° West  Level FlightAware Approximate
Mon 09:46:00 AM 48.7708 -43.2783 263° West  Level FlightAware Approximate
Mon 09:47:00 AM 48.7552 -43.4611 263° West  Level FlightAware Approximate
Mon 09:48:00 AM 48.7393 -43.6438 263° West  Level FlightAware Approximate
Mon 09:49:00 AM 48.7232 -43.8263 262° West  Level FlightAware Approximate
Mon 09:50:00 AM 48.7067 -44.0088 262° West  Level FlightAware Approximate
Mon 09:51:00 AM 48.6900 -44.1911 262° West  Level FlightAware Approximate
Mon 09:52:00 AM 48.6730 -44.3733 262° West  Level FlightAware Approximate
Mon 09:53:00 AM 48.6556 -44.5554 262° West  Level FlightAware Approximate
Mon 09:54:00 AM 48.6380 -44.7374 262° West  Level FlightAware Approximate
Mon 09:55:00 AM 48.6202 -44.9192 262° West  Level FlightAware Approximate
Mon 09:56:00 AM 48.6020 -45.1009 261° West  Level FlightAware Approximate
Mon 09:57:00 AM 48.5835 -45.2825 261° West  Level FlightAware Approximate
Mon 09:58:00 AM 48.5648 -45.4639 261° West  Level FlightAware Approximate
Mon 09:59:00 AM 48.5457 -45.6452 261° West  Level FlightAware Approximate
Mon 10:00:00 AM 48.5264 -45.8263 261° West  Level FlightAware Approximate
Mon 10:01:00 AM 48.5068 -46.0074 261° West  Level FlightAware Approximate
Mon 10:02:00 AM 48.4870 -46.1882 261° West  Level FlightAware Approximate
Mon 10:03:00 AM 48.4668 -46.3690 261° West  Level FlightAware Approximate
Mon 10:04:00 AM 48.4463 -46.5496 260° West  Level FlightAware Approximate
Mon 10:05:00 AM 48.4256 -46.7300 260° West  Level FlightAware Approximate
Mon 10:06:00 AM 48.4046 -46.9103 260° West  Level FlightAware Approximate
Mon 10:07:00 AM 48.3833 -47.0905 260° West  Level FlightAware Approximate
Mon 10:08:00 AM 48.3617 -47.2705 260° West  Level FlightAware Approximate
Mon 10:09:00 AM 48.3399 -47.4503 260° West  Level FlightAware Approximate
Mon 10:10:00 AM 48.3177 -47.6300 260° West  Level FlightAware Approximate
Mon 10:11:00 AM 48.2953 -47.8095 259° West  Level FlightAware Approximate
Mon 10:12:00 AM 48.2726 -47.9889 259° West  Level FlightAware Approximate
Mon 10:13:00 AM 48.2497 -48.1681 259° West  Level FlightAware Approximate
Mon 10:14:00 AM 48.2264 -48.3471 259° West  Level FlightAware Approximate
Mon 10:15:00 AM 48.2029 -48.5260 259° West  Level FlightAware Approximate
Mon 10:16:00 AM 48.1791 -48.7048 259° West  Level FlightAware Approximate
Mon 10:17:00 AM 48.1550 -48.8833 259° West  Level FlightAware Approximate
Mon 10:18:00 AM 48.1306 -49.0617 259° West  Level FlightAware Approximate
Mon 10:19:00 AM 48.1060 -49.2399 258° West  Level FlightAware Approximate
Mon 10:19:12 AM 47.9700 -50.3800 258° West 464 534 37,000  Level FlightAware ADS-B
Mon 10:19:42 AM 47.9540 -50.4740 256° West 464 534 37,000  Level FlightAware ADS-B
Mon 10:20:32 AM 47.9280 -50.6290 256° West 464 534 37,000  Level FlightAware ADS-B
Mon 10:21:12 AM 47.9060 -50.7570 256° West 463 533 37,000 540 Level FlightAware ADS-B
Mon 10:22:12 AM 47.8720 -50.9470 255° West 457 526 37,900 462 Climbing FlightAware ADS-B
Mon 10:23:22 AM 47.8340 -51.1570 255° West 456 525 38,000 43 Climbing FlightAware ADS-B
Mon 10:24:32 AM 47.7940 -51.3710 255° West 457 526 38,000  Level FlightAware ADS-B
Mon 10:25:22 AM 47.7650 -51.5260 254° West 457 526 38,000  Level FlightAware ADS-B
Mon 10:26:07 AM 47.7400 -51.6610 255° West 457 526 38,000  Level FlightAware ADS-B
Mon 10:27:07 AM 47.7060 -51.8420 254° West 457 526 38,000  Level FlightAware ADS-B
Mon 10:28:17 AM 47.6650 -52.0540 254° West 456 525 38,000  Level FlightAware ADS-B
Mon 10:29:27 AM 47.6250 -52.2640 254° West 458 527 38,000  Level FlightAware ADS-B
Mon 10:30:37 AM 47.5840 -52.4750 254° West 458 527 38,000  Level FlightAware ADS-B
Mon 10:31:47 AM 47.5420 -52.6850 254° West 458 527 38,000  Level FlightAware ADS-B
Mon 10:32:57 AM 47.5000 -52.8960 254° West 456 525 38,000  Level FlightAware ADS-B
Mon 10:33:32 AM 47.4800 -52.9980 254° West 456 525 38,000  Level FlightAware ADS-B
Mon 10:34:17 AM 47.4530 -53.1270 253° West 456 525 38,000  Level FlightAware ADS-B
Mon 10:35:32 AM 47.4070 -53.3550 253° West 456 525 38,000  Level FlightAware ADS-B
Mon 10:36:42 AM 47.3640 -53.5620 253° West 458 527 38,000  Level FlightAware ADS-B
Mon 10:37:47 AM 47.3230 -53.7570 253° West 457 526 38,000  Level FlightAware ADS-B
Mon 10:39:02 AM 47.2770 -53.9790 253° West 456 525 38,000  Level FlightAware ADS-B
Mon 10:39:32 AM 47.2570 -54.0710 252° West 456 525 38,000  Level FlightAware ADS-B
Mon 10:40:52 AM 47.2080 -54.2980 252° West 456 525 38,000  Level FlightAware ADS-B
Mon 10:41:27 AM 47.1860 -54.4000 252° West 456 525 38,000  Level FlightAware ADS-B
Mon 10:42:12 AM 47.1570 -54.5330 252° West 453 521 38,000  Level FlightAware ADS-B
Mon 10:43:27 AM 47.1100 -54.7490 252° West 451 519 38,000  Level FlightAware ADS-B
Mon 10:44:07 AM 47.0800 -54.8840 252° West 455 524 38,000  Level FlightAware ADS-B
Mon 10:44:47 AM 47.0560 -54.9960 253° West 456 525 38,000  Level FlightAware ADS-B
Mon 10:46:22 AM 46.9940 -55.2660 251° West 456 525 38,000  Level FlightAware ADS-B
Mon 10:47:12 AM 46.9620 -55.4090 252° West 457 526 38,000  Level FlightAware ADS-B
Mon 10:48:17 AM 46.9180 -55.6040 252° West 459 528 38,000  Level FlightAware ADS-B
Mon 10:49:37 AM 46.8650 -55.8340 251° West 459 528 38,000  Level FlightAware ADS-B
Mon 10:50:27 AM 46.8360 -55.9590 251° West 459 528 38,000  Level FlightAware ADS-B
Mon 10:51:07 AM 46.8120 -56.0580 251° West 459 528 38,000  Level FlightAware ADS-B
Mon 10:51:47 AM 46.7890 -56.1580 251° West 459 528 38,000  Level FlightAware ADS-B
Mon 10:52:27 AM 46.7650 -56.2580 251° West 459 528 38,000  Level FlightAware ADS-B
Mon 10:53:07 AM 46.7420 -56.3580 251° West 459 528 38,000  Level FlightAware ADS-B
Mon 10:53:57 AM 46.7120 -56.4820 251° West 459 528 38,000  Level FlightAware ADS-B
Mon 10:54:37 AM 46.6890 -56.5820 251° West 459 528 38,000  Level FlightAware ADS-B
Mon 10:55:17 AM 46.6650 -56.6810 251° West 459 528 38,000  Level FlightAware ADS-B
Mon 10:55:57 AM 46.6420 -56.7800 251° West 459 528 38,000  Level FlightAware ADS-B
Mon 10:58:22 AM 46.4980 -57.3660 251° West 459 528 38,000  Level FlightAware ADS-B
Mon 10:59:02 AM 46.4730 -57.4650 250° West 459 528 38,000  Level FlightAware ADS-B
Mon 10:59:42 AM 46.4480 -57.5630 250° West 459 528 38,000  Level FlightAware ADS-B
Mon 11:00:22 AM 46.4230 -57.6610 250° West 459 528 38,000  Level FlightAware ADS-B
Mon 11:01:02 AM 46.3990 -57.7600 251° West 459 528 38,000  Level FlightAware ADS-B
Mon 11:01:52 AM 46.3440 -57.9770 250° West 461 531 38,000  Level FlightAware ADS-B
Mon 11:02:32 AM 46.3150 -58.0870 249° West 461 531 38,000  Level FlightAware ADS-B
Mon 11:03:12 AM 46.2890 -58.1850 249° West 461 531 38,000  Level FlightAware ADS-B
Mon 11:03:52 AM 46.2630 -58.2830 249° West 461 531 38,000  Level FlightAware ADS-B
Mon 11:04:42 AM 46.2160 -58.4750 251° West 459 528 38,000  Level FlightAware ADS-B
Mon 11:05:22 AM 46.1860 -58.5880 249° West 459 528 38,000  Level FlightAware ADS-B
Mon 11:06:07 AM 46.1530 -58.7150 249° West 459 528 38,000  Level FlightAware ADS-B
Mon 11:06:47 AM 46.1230 -58.8300 249° West 459 528 38,000  Level FlightAware ADS-B
Mon 11:07:32 AM 46.0880 -58.9620 249° West 459 528 38,000  Level FlightAware ADS-B
Mon 11:08:12 AM 46.0580 -59.0740 249° West 460 529 38,000  Level FlightAware ADS-B
Mon 11:08:52 AM 46.0270 -59.1880 249° West 460 529 38,000  Level FlightAware ADS-B
Mon 11:09:37 AM 45.9930 -59.3150 249° West 460 529 38,000  Level FlightAware ADS-B
Mon 11:10:17 AM 45.9620 -59.4310 249° West 462 532 38,000  Level FlightAware ADS-B
Mon 11:11:02 AM 45.9270 -59.5580 248° West 462 532 38,000  Level FlightAware ADS-B
Mon 11:11:42 AM 45.8950 -59.6730 248° West 463 533 38,000  Level FlightAware ADS-B
Mon 11:12:22 AM 45.8640 -59.7890 249° West 465 535 38,000  Level FlightAware ADS-B
Mon 11:13:02 AM 45.8350 -59.8890 247° West 465 535 38,000  Level FlightAware ADS-B
Mon 11:13:42 AM 45.8080 -59.9870 248° West 465 535 38,000  Level FlightAware ADS-B
Mon 11:14:27 AM 45.7640 -60.1460 248° West 468 539 38,000  Level FlightAware ADS-B
Mon 11:15:12 AM 45.7290 -60.2740 249° West 466 536 38,000  Level FlightAware ADS-B
Mon 11:15:52 AM 45.6970 -60.3860 248° West 467 537 38,000  Level FlightAware ADS-B
Mon 11:16:37 AM 45.6600 -60.5180 248° West 469 540 38,000  Level FlightAware ADS-B
Mon 11:17:17 AM 45.6270 -60.6350 248° West 470 541 38,000  Level FlightAware ADS-B
Mon 11:17:52 AM 45.6000 -60.7280 247° West 472 543 38,000  Level FlightAware ADS-B
Mon 11:18:37 AM 45.5610 -60.8620 247° West 474 545 38,000  Level FlightAware ADS-B
Mon 11:19:22 AM 45.5240 -60.9900 248° West 472 543 38,000  Level FlightAware ADS-B
Mon 11:20:02 AM 45.4910 -61.1050 248° West 471 542 38,000  Level FlightAware ADS-B
Mon 11:20:42 AM 45.4590 -61.2150 248° West 472 543 38,000  Level FlightAware ADS-B
Mon 11:21:22 AM 45.4300 -61.3120 247° West 472 543 38,000  Level FlightAware ADS-B
Mon 11:22:12 AM 45.3930 -61.4340 247° West 472 543 38,000  Level FlightAware ADS-B
Mon 11:22:52 AM 45.3640 -61.5310 247° West 472 543 38,000  Level FlightAware ADS-B
Mon 11:23:32 AM 45.3350 -61.6280 247° West 472 543 38,000  Level FlightAware ADS-B
Mon 11:24:12 AM 45.3060 -61.7250 247° West 472 543 38,000  Level FlightAware ADS-B
Mon 11:24:52 AM 45.2770 -61.8230 247° West 472 543 38,000  Level FlightAware ADS-B
Mon 11:25:42 AM 45.2410 -61.9440 247° West 472 543 38,000  Level FlightAware ADS-B
Mon 11:26:22 AM 45.2120 -62.0410 247° West 472 543 38,000  Level FlightAware ADS-B
Mon 11:27:02 AM 45.1830 -62.1380 247° West 472 543 38,000  Level FlightAware ADS-B
Mon 11:27:42 AM 45.1540 -62.2350 247° West 472 543 38,000  Level FlightAware ADS-B
Mon 11:28:22 AM 45.1250 -62.3320 247° West 472 543 38,000  Level FlightAware ADS-B
Mon 11:29:02 AM 45.0960 -62.4290 247° West 472 543 38,000  Level FlightAware ADS-B
Mon 11:29:52 AM 45.0600 -62.5500 247° West 472 543 38,000  Level FlightAware ADS-B
Mon 11:33:37 AM 44.7930 -63.3970 246° West 468 539 38,000  Level FlightAware ADS-B
Mon 11:34:17 AM 44.7540 -63.5210 246° West 469 540 38,000  Level FlightAware ADS-B
Mon 11:35:02 AM 44.7130 -63.6480 246° West 470 541 38,000  Level FlightAware ADS-B
Mon 11:35:47 AM 44.6790 -63.7550 246° West 470 541 38,000  Level FlightAware ADS-B
Mon 11:36:27 AM 44.6350 -63.8910 246° West 472 543 38,000  Level FlightAware ADS-B
Mon 11:37:12 AM 44.5930 -64.0180 245° Southwest 471 542 38,000  Level FlightAware ADS-B
Mon 11:37:52 AM 44.5600 -64.1210 246° West 470 541 38,000  Level FlightAware ADS-B
Mon 11:38:32 AM 44.5240 -64.2290 245° Southwest 471 542 38,000  Level FlightAware ADS-B
Mon 11:39:17 AM 44.4820 -64.3580 246° West 472 543 38,000  Level FlightAware ADS-B
Mon 11:39:57 AM 44.4450 -64.4680 245° Southwest 469 540 38,000  Level FlightAware ADS-B
Mon 11:40:37 AM 44.4090 -64.5770 245° Southwest 469 540 38,000  Level FlightAware ADS-B
Mon 11:41:22 AM 44.3670 -64.7030 245° Southwest 469 540 38,000  Level FlightAware ADS-B
Mon 11:42:02 AM 44.3310 -64.8120 245° Southwest 467 537 38,000  Level FlightAware ADS-B
Mon 11:42:47 AM 44.2880 -64.9380 245° Southwest 468 539 38,000  Level FlightAware ADS-B
Mon 11:43:27 AM 44.2520 -65.0460 245° Southwest 467 537 38,000  Level FlightAware ADS-B
Mon 11:44:07 AM 44.2140 -65.1560 244° Southwest 467 537 38,000  Level FlightAware ADS-B
Mon 11:44:47 AM 44.1780 -65.2620 245° Southwest 464 534 38,000  Level FlightAware ADS-B
Mon 11:45:32 AM 44.1360 -65.3840 244° Southwest 466 536 38,000  Level FlightAware ADS-B
Mon 11:46:12 AM 44.1010 -65.4860 244° Southwest 466 536 38,000  Level FlightAware ADS-B
Mon 11:46:57 AM 44.0560 -65.6170 244° Southwest 466 536 38,000  Level FlightAware ADS-B
Mon 11:47:37 AM 44.0180 -65.7270 244° Southwest 467 537 38,000  Level FlightAware ADS-B
Mon 11:48:17 AM 43.9810 -65.8340 244° Southwest 467 537 38,000  Level FlightAware ADS-B
Mon 11:49:02 AM 43.9390 -65.9530 244° Southwest 465 535 38,000  Level FlightAware ADS-B
Mon 11:49:42 AM 43.9000 -66.0630 244° Southwest 463 533 38,000  Level FlightAware ADS-B
Mon 11:50:27 AM 43.8570 -66.1860 244° Southwest 460 529 38,000  Level FlightAware ADS-B
Mon 11:51:07 AM 43.8190 -66.2940 244° Southwest 459 528 38,000  Level FlightAware ADS-B
Mon 11:51:47 AM 43.7820 -66.3990 244° Southwest 456 525 38,000  Level FlightAware ADS-B
Mon 11:52:32 AM 43.7400 -66.5160 244° Southwest 454 522 38,000  Level FlightAware ADS-B
Mon 11:53:12 AM 43.7020 -66.6210 243° Southwest 452 520 38,000  Level FlightAware ADS-B
Mon 11:53:57 AM 43.6600 -66.7380 244° Southwest 454 522 38,000  Level FlightAware ADS-B
Mon 11:54:37 AM 43.6220 -66.8440 244° Southwest 458 527 38,000  Level FlightAware ADS-B
Mon 11:55:17 AM 43.5840 -66.9480 243° Southwest 460 529 38,000  Level FlightAware ADS-B
Mon 11:56:02 AM 43.5450 -67.0700 246° West 459 528 38,000  Level FlightAware ADS-B
Mon 11:56:42 AM 43.5150 -67.1780 249° West 459 528 38,000  Level FlightAware ADS-B
Mon 11:57:27 AM 43.4810 -67.3000 249° West 456 525 38,000  Level FlightAware ADS-B
Mon 11:58:07 AM 43.4500 -67.4090 249° West 455 524 38,000  Level FlightAware ADS-B
Mon 11:58:47 AM 43.4200 -67.5160 249° West 452 520 38,000  Level FlightAware ADS-B
Mon 11:59:32 AM 43.3850 -67.6370 248° West 450 518 38,000  Level FlightAware ADS-B
Mon 12:00:12 PM 43.3550 -67.7420 249° West 451 519 38,000  Level FlightAware ADS-B
Mon 12:00:57 PM 43.3200 -67.8640 249° West 450 518 38,000  Level FlightAware ADS-B
Mon 12:01:37 PM 43.2900 -67.9680 248° West 448 516 38,000  Level FlightAware ADS-B
Mon 12:02:12 PM 43.2640 -68.0560 248° West 448 516 38,000  Level FlightAware ADS-B
Mon 12:03:02 PM 43.2260 -68.1870 248° West 449 517 38,000  Level FlightAware ADS-B
Mon 12:03:42 PM 43.1930 -68.2990 248° West 447 514 38,000  Level FlightAware ADS-B
Mon 12:04:22 PM 43.1630 -68.4010 248° West 446 513 38,000  Level FlightAware ADS-B
Mon 12:05:07 PM 43.1270 -68.5220 248° West 444 511 38,000  Level FlightAware ADS-B
Mon 12:05:47 PM 43.0990 -68.6180 248° West 443 510 38,000  Level FlightAware ADS-B
Mon 12:06:22 PM 43.0700 -68.7150 248° West 442 509 38,000  Level FlightAware ADS-B
Mon 12:07:12 PM 43.0310 -68.8470 248° West 442 509 38,000  Level FlightAware ADS-B
Mon 12:07:47 PM 43.0050 -68.9310 247° West 442 509 38,000  Level FlightAware ADS-B
Mon 12:08:37 PM 42.9640 -69.0660 247° West 441 507 38,000  Level FlightAware ADS-B
Mon 12:09:17 PM 42.9330 -69.1710 248° West 440 506 38,000  Level FlightAware ADS-B
Mon 12:10:02 PM 42.8970 -69.2880 247° West 440 506 38,000 -141 Level FlightAware ADS-B
Mon 12:10:42 PM 42.8670 -69.3860 247° West 441 507 37,800 -632 Descending FlightAware ADS-B
Mon 12:11:37 PM 42.8220 -69.5320 247° West 444 511 37,000 -480 Descending FlightAware ADS-B
Mon 12:12:22 PM 42.7890 -69.6400 247° West 445 512 37,000  Level FlightAware ADS-B
Mon 12:13:02 PM 42.7540 -69.7520 247° West 444 511 37,000 -424 Level FlightAware ADS-B
Mon 12:13:47 PM 42.7180 -69.8680 247° West 437 503 36,400 -918 Descending FlightAware ADS-B
Mon 12:14:27 PM 42.6860 -69.9700 247° West 438 504 35,700 -1,650 Descending FlightAware ADS-B
Mon 12:15:07 PM 42.6540 -70.0720 247° West 436 502 34,200 -2,329 Descending FlightAware ADS-B
Mon 12:15:52 PM 42.6190 -70.1820 247° West 443 510 32,400 -2,471 Descending FlightAware ADS-B
Mon 12:16:32 PM 42.5840 -70.2890 246° West 450 518 30,700 -2,400 Descending FlightAware ADS-B
Mon 12:17:17 PM 42.5470 -70.4060 247° West 443 510 29,000 -1,906 Descending FlightAware ADS-B
Mon 12:17:57 PM 42.5150 -70.5050 246° West 423 487 28,000 -750 Descending FlightAware ADS-B
Mon 12:18:37 PM 42.4840 -70.6020 247° West 422 486 28,000 -282 Level FlightAware ADS-B
Mon 12:19:22 PM 42.4500 -70.7060 246° West 421 484 27,600 -918 Descending FlightAware ADS-B
Mon 12:20:02 PM 42.4170 -70.8080 246° West 415 478 26,700 -1,341 Descending FlightAware ADS-B
Mon 12:20:47 PM 42.3830 -70.9110 246° West 411 473 25,700 -1,341 Descending FlightAware ADS-B
Mon 12:21:27 PM 42.3530 -71.0100 248° West 402 463 24,800 -1,200 Descending FlightAware ADS-B
Mon 12:22:07 PM 42.3300 -71.1040 252° West 395 455 24,100 -1,129 Descending FlightAware ADS-B
Mon 12:22:52 PM 42.3050 -71.2090 252° West 397 457 23,200 -988 Descending FlightAware ADS-B
Mon 12:23:32 PM 42.2830 -71.3050 253° West 388 447 22,700 -847 Descending FlightAware ADS-B
Mon 12:24:17 PM 42.2580 -71.4080 252° West 383 441 22,000 -918 Descending FlightAware ADS-B
Mon 12:24:57 PM 42.2360 -71.4960 251° West 371 427 21,400 -1,200 Descending FlightAware ADS-B
Mon 12:25:37 PM 42.2150 -71.5850 252° West 368 423 20,400 -1,425 Descending FlightAware ADS-B
Mon 12:26:17 PM 42.1940 -71.6710 252° West 365 420 19,500 -1,200 Descending FlightAware ADS-B
Mon 12:27:02 PM 42.1710 -71.7680 252° West 355 409 18,700 -918 Descending FlightAware ADS-B
Mon 12:27:42 PM 42.1520 -71.8440 251° West 350 403 18,200 -635 Descending FlightAware ADS-B
Mon 12:28:27 PM 42.1280 -71.9430 252° West 353 406 17,800 -519 Descending FlightAware ADS-B
Mon 12:30:47 PM 42.0560 -72.2320 252° West 351 404 16,600 -442 Descending FlightAware ADS-B
Mon 12:31:37 PM 42.0440 -72.2800 251° West 340 391 16,400 -120 Descending FlightAware ADS-B
Mon 12:32:27 PM 42.0220 -72.3650 251° West 340 391 16,400  Level FlightAware ADS-B
Mon 12:33:07 PM 42.0040 -72.4330 250° West 340 391 16,400  Level FlightAware ADS-B
Mon 12:33:47 PM 41.9870 -72.5010 251° West 340 391 16,400  Level FlightAware ADS-B
Mon 12:34:27 PM 41.9700 -72.5690 251° West 340 391 16,400  Level FlightAware ADS-B
Mon 12:35:07 PM 41.9520 -72.6370 250° West 340 391 16,400 -153 Level FlightAware ADS-B
Mon 12:39:02 PM 41.9360 -73.1410 268° West 299 344 15,700 -150 Descending FlightAware ADS-B
Mon 12:39:47 PM 41.9510 -73.2100 286° West 299 344 15,700  Level FlightAware ADS-B
Mon 12:40:37 PM 41.9690 -73.2860 288° West 299 344 15,700  Level FlightAware ADS-B
Mon 12:41:17 PM 41.9820 -73.3460 286° West 299 344 15,700  Level FlightAware ADS-B
Mon 12:41:57 PM 41.9960 -73.4070 287° West 299 344 15,700  Level FlightAware ADS-B
Mon 12:42:37 PM 42.0100 -73.4670 287° West 299 344 15,700 -1,412 Level FlightAware ADS-B
Mon 12:43:22 PM 42.0300 -73.6000 281° West 289 333 13,700 -1,867 Descending FlightAware ADS-B
Mon 12:44:07 PM 42.0360 -73.6750 276° West 281 323 12,900 -706 Descending FlightAware ADS-B
Mon 12:44:47 PM 42.0420 -73.7400 277° West 260 299 12,700 -160 Descending FlightAware ADS-B
Mon 12:45:22 PM 42.0470 -73.8000 276° West 257 296 12,700  Level FlightAware ADS-B
Mon 12:46:07 PM 42.0530 -73.8620 277° West 257 296 12,700  Level FlightAware ADS-B
Mon 12:46:47 PM 42.0580 -73.9160 277° West 257 296 12,700 198 Level FlightAware ADS-B
Mon 12:47:38 PM 42.0686 -74.0119 277° West 256 295 13,000 -164 Climbing Boston Center
Mon 12:48:37 PM 42.0756 -74.0958 276° West 256 295 12,400 -655 Descending Boston Center
Mon 12:49:37 PM 42.0825 -74.1997 275° West 256 295 11,700 -650 Descending Boston Center
Mon 12:50:37 PM 42.0581 -74.2883 250° West 256 295 11,100 -800 Descending Boston Center
Mon 12:51:37 PM 42.0233 -74.3714 241° Southwest 256 295 10,100 -550 Descending Boston Center
Mon 12:52:37 PM 41.9928 -74.4542 244° Southwest 256 295 10,000 -400 Descending Boston Center
Mon 12:53:37 PM 41.9619 -74.5369 243° Southwest 251 289 9,300 -942 Descending Boston Center
Mon 12:54:38 PM 41.9011 -74.5711 203° Southwest 237 273 8,100 -650 Descending Boston Center
Mon 12:55:37 PM 41.8283 -74.5547 170° South 239 275 8,000 -50 Descending Boston Center
Mon 12:56:37 PM 41.7556 -74.5411 172° South 257 296 8,000  Level Boston Center
Mon 12:57:37 PM 41.6808 -74.5247 171° South 264 304 8,000 -200 Level Boston Center
Mon 12:58:37 PM 41.6103 -74.5114 172° South 270 311 7,600 -500 Descending Boston Center
Mon 12:59:37 PM 41.5378 -74.4925 169° South 270 311 7,000 -300 Descending Boston Center
Mon 01:00:37 PM 41.4753 -74.4792 171° South 270 311 7,000  Level Boston Center
Mon 01:01:37 PM 41.4067 -74.4744 177° South 238 274 7,000  Level Boston Center
Mon 01:02:37 PM 41.3847 -74.5400 246° West 195 224 7,000 -203 Level Boston Center
Mon 01:08:02 PM 41.1360 -74.4740 246° West 227 261 5,700 -223 Descending FlightAware ADS-B
Mon 01:08:27 PM 41.1280 -74.4440 109° East 227 261 5,700 -400 Level FlightAware ADS-B
Mon 01:10:17 PM 41.1360 -74.3010 86° East 204 235 4,800 -400 Descending FlightAware ADS-B
Mon 01:10:42 PM 41.1180 -74.2810 140° Southeast 204 235 4,800 -103 Level FlightAware ADS-B
Mon 01:11:15 PM 41.0836 -74.2642 160° South 196 226 4,700  Descending FlightAware ADS-B
Mon 01:11:31 PM 41.0711 -74.2554 152° Southeast 182 209 4,800 162 Climbing FlightAware ADS-B
Mon 01:11:52 PM 41.0567 -74.2451 152° Southeast 162 186 4,800 -158 Level FlightAware ADS-B
Mon 01:12:09 PM 41.0460 -74.2375 152° Southeast 155 178 4,700 -167 Descending FlightAware ADS-B
Mon 01:12:28 PM 41.0340 -74.2296 154° Southeast 153 176 4,700 222 Level FlightAware ADS-B
Mon 01:12:36 PM 41.0284 -74.2278 166° South 153 176 4,800 333 Climbing FlightAware ADS-B
Mon 01:12:46 PM 41.0214 -74.2264 171° South 152 175 4,800  Level FlightAware ADS-B
Mon 01:13:02 PM 41.0101 -74.2251 175° South 152 175 4,800 -194 Level FlightAware ADS-B
Mon 01:13:17 PM 40.9997 -74.2238 175° South 152 175 4,700 -300 Descending FlightAware ADS-B
Mon 01:13:22 PM 40.9963 -74.2229 169° South 153 176 4,700  Level FlightAware ADS-B
Mon 01:13:26 PM 40.9934 -74.2214 159° South 156 180 4,700  Level FlightAware ADS-B
Mon 01:13:32 PM 40.9899 -74.2181 145° Southeast 162 186 4,700  Level FlightAware ADS-B
Mon 01:13:37 PM 40.9876 -74.2141 127° Southeast 168 193 4,700  Level FlightAware ADS-B
Mon 01:13:41 PM 40.9864 -74.2108 116° Southeast 173 199 4,700 857 Level FlightAware ADS-B
Mon 01:13:44 PM 40.9856 -74.2078 109° East 176 203 4,800 1,000 Climbing FlightAware ADS-B
Mon 01:13:47 PM 40.9850 -74.2040 102° East 178 205 4,800  Level FlightAware ADS-B
Mon 01:13:52 PM 40.9843 -74.1988 100° East 179 206 4,800 -545 Level FlightAware ADS-B
Mon 01:13:58 PM 40.9837 -74.1923 97° East 180 207 4,700 -353 Descending FlightAware ADS-B
Mon 01:14:09 PM 40.9826 -74.1807 97° East 178 205 4,700 -453 Level FlightAware ADS-B
Mon 01:14:51 PM 40.9741 -74.1385 105° East 163 188 4,300 -632 Descending FlightAware ADS-B
Mon 01:15:06 PM 40.9684 -74.1252 120° Southeast 162 186 4,100 -774 Descending FlightAware ADS-B
Mon 01:15:22 PM 40.9627 -74.1124 121° Southeast 160 184 3,900 -750 Descending FlightAware ADS-B
Mon 01:15:30 PM 40.9596 -74.1058 122° Southeast 158 182 3,800 -400 Descending FlightAware ADS-B
Mon 01:15:37 PM 40.9566 -74.1002 125° Southeast 155 178 3,800 -500 Level FlightAware ADS-B
Mon 01:15:42 PM 40.9542 -74.0970 135° Southeast 153 176 3,700 -800 Descending FlightAware ADS-B
Mon 01:15:52 PM 40.9483 -74.0907 141° Southeast 150 173 3,600 -522 Descending FlightAware ADS-B
Mon 01:16:05 PM 40.9415 -74.0842 144° Southeast 150 173 3,500 -273 Descending FlightAware ADS-B
Mon 01:16:14 PM 40.9359 -74.0794 147° Southeast 149 171 3,500 -500 Level FlightAware ADS-B
Mon 01:16:17 PM 40.9341 -74.0781 151° Southeast 149 171 3,400 -750 Descending FlightAware ADS-B
Mon 01:16:22 PM 40.9314 -74.0767 159° South 149 171 3,400  Level FlightAware ADS-B
Mon 01:16:27 PM 40.9280 -74.0752 162° South 149 171 3,400 -500 Level FlightAware ADS-B
Mon 01:16:34 PM 40.9232 -74.0736 166° South 149 171 3,300 -750 Descending FlightAware ADS-B
Mon 01:16:43 PM 40.9169 -74.0718 168° South 149 171 3,200 -462 Descending FlightAware ADS-B
Mon 01:17:00 PM 40.9052 -74.0691 170° South 148 170 3,100 -462 Descending FlightAware ADS-B
Mon 01:17:09 PM 40.8994 -74.0679 171° South 148 170 3,000 -462 Descending FlightAware ADS-B
Mon 01:17:13 PM 40.8962 -74.0676 176° South 150 173 3,000 -857 Level FlightAware ADS-B
Mon 01:17:16 PM 40.8943 -74.0675 178° South 151 174 2,900 -632 Descending FlightAware ADS-B
Mon 01:17:32 PM 40.8835 -74.0682 183° South 150 173 2,800 -353 Descending FlightAware ADS-B
Mon 01:17:50 PM 40.8707 -74.0691 183° South 152 175 2,700  Descending FlightAware ADS-B
Mon 01:18:05 PM 40.8602 -74.0696 182° South 152 175 2,800 240 Climbing FlightAware ADS-B
Mon 01:18:15 PM 40.8537 -74.0699 182° South 151 174 2,800 -286 Level FlightAware ADS-B
Mon 01:18:26 PM 40.8457 -74.0704 183° South 151 174 2,700 -400 Descending FlightAware ADS-B
Mon 01:18:30 PM 40.8434 -74.0706 184° South 152 175 2,700  Level FlightAware ADS-B
Mon 01:18:34 PM 40.8404 -74.0715 193° South 156 180 2,700  Level FlightAware ADS-B
Mon 01:18:40 PM 40.8363 -74.0734 199° South 159 183 2,700 -286 Level FlightAware ADS-B
Mon 01:18:55 PM 40.8262 -74.0796 205° Southwest 162 186 2,600 -643 Descending FlightAware ADS-B
Mon 01:19:08 PM 40.8174 -74.0852 206° Southwest 161 185 2,400 -900 Descending FlightAware ADS-B
Mon 01:19:15 PM 40.8126 -74.0883 206° Southwest 161 185 2,300 -800 Descending FlightAware ADS-B
Mon 01:19:38 PM 40.7971 -74.0982 206° Southwest 160 184 2,000 -947 Descending FlightAware ADS-B
Mon 01:19:53 PM 40.7871 -74.1046 206° Southwest 158 182 1,700 -1,043 Descending FlightAware ADS-B
Mon 01:20:01 PM 40.7821 -74.1078 206° Southwest 157 181 1,600 -783 Descending FlightAware ADS-B
Mon 01:20:16 PM 40.7722 -74.1141 206° Southwest 152 175 1,400 -800 Descending FlightAware ADS-B

Login

Don't have an account? Register now (free) for customized features, flight alerts, and more!